Flight Track Log - Related Links

Times and Time Zones

All times are in EDT time to prevent confusion due to time zone crossing. See the SKW5631 flight status page for this flight to view local times or setup timezone preferences in your user account.

Time Position Orientation Groundspeed Altitude Reporting Facility
EDT Latitude Longitude Course Direction KTS MPH feet Rate Location/Type
Wed 10:25:38 PM 37.6500 -122.3500 136° Southeast 171 197 1,900  Level Northern Cal TRACON
Wed 10:26:38 PM 37.7000 -122.3833 332° Northwest 227 261 3,600 1,750 Climbing Northern Cal TRACON
Wed 10:27:38 PM 37.6500 -122.4500 227° Southwest 276 318 5,400 2,171 Climbing Northern Cal TRACON
Wed 10:28:23 PM 37.5975 -122.4697 197° South 282 325 7,400 2,264 Climbing Oakland Center
Wed 10:29:24 PM 37.5203 -122.4972 196° South 289 333 9,400 1,770 Climbing Oakland Center
Wed 10:30:25 PM 37.4356 -122.4925 177° South 326 375 11,000 1,426 Climbing Oakland Center
Wed 10:31:00 PM 37.3468 -122.2228 136° Southeast  Level FlightAware Approximate
Wed 10:31:26 PM 37.3678 -122.4083 135° Southeast 348 400 12,300  Level Oakland Center
Wed 10:32:28 PM 37.2953 -122.3250 138° Southeast 354 407 13,800 1,415 Climbing Oakland Center
Wed 10:33:29 PM 37.2206 -122.2378 137° Southeast 365 420 15,200 1,377 Climbing Oakland Center
Wed 10:34:30 PM 37.1447 -122.1506 137° Southeast 369 425 16,600 1,366 Climbing Oakland Center
Wed 10:35:32 PM 37.0694 -122.0633 137° Southeast 370 426 18,000 1,317 Climbing Oakland Center
Wed 10:36:33 PM 36.9950 -121.9769 137° Southeast 366 421 19,300 1,230 Climbing Oakland Center
Wed 10:37:34 PM 36.9039 -121.8700 137° Southeast 374 430 20,500 1,073 Climbing Oakland Center
Wed 10:38:36 PM 36.8253 -121.7847 139° Southeast 377 434 21,500 829 Climbing Oakland Center
Wed 10:39:37 PM 36.7411 -121.6911 138° Southeast 382 440 22,200 689 Climbing Oakland Center
Wed 10:40:38 PM 36.6619 -121.5983 137° Southeast 391 450 22,900 787 Climbing Oakland Center
Wed 10:41:39 PM 36.5814 -121.5061 137° Southeast 393 452 23,800 732 Climbing Oakland Center
Wed 10:42:41 PM 36.5153 -121.3944 126° Southeast 398 458 24,400 585 Climbing Oakland Center
Wed 10:43:42 PM 36.4467 -121.2828 127° Southeast 406 467 25,000 590 Climbing Oakland Center
Wed 10:44:43 PM 36.3597 -121.1919 140° Southeast 409 471 25,600 541 Climbing Oakland Center
Wed 10:45:44 PM 36.2731 -121.0983 139° Southeast 414 476 26,100 590 Climbing Oakland Center
Wed 10:46:45 PM 36.1847 -121.0058 140° Southeast 416 479 26,800 829 Climbing Oakland Center
Wed 10:47:47 PM 36.0992 -120.9139 139° Southeast 409 471 27,800 829 Climbing Oakland Center
Wed 10:48:48 PM 36.0142 -120.8239 139° Southeast 403 464 28,500 590 Climbing Oakland Center
Wed 10:49:49 PM 35.9106 -120.7150 140° Southeast 407 468 29,000 244 Climbing Oakland Center
Wed 10:50:51 PM 35.8206 -120.6208 140° Southeast 422 486 29,000  Level Oakland Center
Wed 10:51:52 PM 35.7283 -120.5250 140° Southeast 432 497 29,000  Level Oakland Center
Wed 10:52:53 PM 35.6353 -120.4267 139° Southeast 439 505 29,000 -48 Level Oakland Center
Wed 10:53:57 PM 35.5378 -120.3244 140° Southeast 444 511 28,900  Descending Los Angeles Center
Wed 10:54:59 PM 35.4411 -120.2264 140° Southeast 450 518 29,000 -242 Climbing Los Angeles Center
Wed 10:56:01 PM 35.3464 -120.1269 139° Southeast 448 516 28,400 -1,258 Descending Los Angeles Center
Wed 10:57:03 PM 35.2500 -120.0247 139° Southeast 449 517 26,400 -2,098 Descending Los Angeles Center
Wed 10:58:04 PM 35.1547 -119.9283 140° Southeast 445 512 24,100 -2,341 Descending Los Angeles Center
Wed 10:59:06 PM 35.0636 -119.8261 137° Southeast 445 512 21,600 -2,661 Descending Los Angeles Center
Wed 11:00:08 PM 34.9703 -119.6992 132° Southeast 423 487 18,600 -2,419 Descending Los Angeles Center
Wed 11:01:10 PM 34.8958 -119.5994 132° Southeast 404 465 16,600 -1,935 Descending Los Angeles Center
Wed 11:02:12 PM 34.8208 -119.4981 132° Southeast 401 461 14,600 -1,935 Descending Los Angeles Center
Wed 11:03:14 PM 34.7472 -119.3992 132° Southeast 398 458 12,600 -1,742 Descending Los Angeles Center
Wed 11:04:16 PM 34.6747 -119.3033 133° Southeast 389 448 11,000 -774 Descending Los Angeles Center
Wed 11:05:18 PM 34.5964 -119.1997 133° Southeast 386 444 11,000  Level Los Angeles Center
Wed 11:06:20 PM 34.5356 -119.1186 132° Southeast 330 380 11,000 -97 Level Los Angeles Center
Wed 11:07:22 PM 34.4792 -119.0422 132° Southeast 302 348 10,800 -968 Descending Los Angeles Center
Wed 11:08:24 PM 34.4242 -118.9717 133° Southeast 288 331 9,000 -1,854 Descending Los Angeles Center
Wed 11:09:25 PM 34.3578 -118.8847 133° Southeast 293 337 7,000 -1,561 Descending Los Angeles Center
Wed 11:10:27 PM 34.2872 -118.8372 151° Southeast 290 334 5,800 -968 Descending Los Angeles Center
Wed 11:11:29 PM 34.2203 -118.7875 148° Southeast 283 326 5,000 -677 Descending Los Angeles Center
Wed 11:12:31 PM 34.2014 -118.6972 104° East 289 333 4,400 -677 Descending Los Angeles Center
Wed 11:13:33 PM 34.2017 -118.6072 90° East 274 315 3,600 -774 Descending Los Angeles Center

Login

Don't have an account? Register now (free) for customized features, flight alerts, and more!